• Join FlightAware (Why Join?)
  • Login
  • US Flag 
Rudolph Flight #1: Arrived! 
08:40PM EST


 

Airport Tracker/Info


-or-


 

Live Flight TrackerFlight Track Log ✈ AWI4053 ✈ 29-Apr-2013 ✈ KDCA - KCHS

Flight Track Log - Related Links

Times and Time Zones

All times are in EDT time to prevent confusion due to time zone crossing. See the AWI4053 flight status page for this flight to view local times or setup timezone preferences in your user account.

Time Position Orientation Groundspeed Altitude Reporting Facility
EDT Latitude Longitude Course Direction KTS MPH feet Rate Location/Type
10:42AM 38.4932 -77.2334 203° Southwest  Level Estimated
10:43AM 38.4034 -77.2820 203° Southwest  Level Estimated
10:44AM 38.3137 -77.3305 203° Southwest  Level Estimated
10:45AM 38.2239 -77.3788 203° Southwest  Level Estimated
10:46AM 38.1341 -77.4271 203° Southwest  Level Estimated
10:47AM 38.0443 -77.4752 203° Southwest  Level Estimated
10:48AM 37.9544 -77.5232 203° Southwest  Level Estimated
10:49AM 37.8646 -77.5711 203° Southwest  Level Estimated
10:50AM 37.7747 -77.6189 203° Southwest  Level Estimated
10:51AM 37.6848 -77.6666 203° Southwest  Level Estimated
10:52AM 37.5949 -77.7141 203° Southwest  Level Estimated
10:53AM 37.5049 -77.7615 203° Southwest  Level Estimated
10:54AM 37.4150 -77.8089 203° Southwest  Level Estimated
10:55AM 37.3250 -77.8561 203° Southwest  Level Estimated
10:56AM 37.2350 -77.9032 203° Southwest  Level Estimated
10:57AM 37.1450 -77.9501 203° Southwest  Level Estimated
10:58AM 37.0550 -77.9970 203° Southwest  Level Estimated
10:59AM 36.9649 -78.0438 203° Southwest  Level Estimated
11:00AM 36.8749 -78.0904 203° Southwest  Level Estimated
11:01AM 36.7848 -78.1370 202° Southwest  Level Estimated
11:02AM 36.6947 -78.1834 202° Southwest  Level Estimated
11:03AM 36.6046 -78.2297 202° Southwest  Level Estimated
11:04AM 36.5144 -78.2759 202° Southwest  Level Estimated
11:05AM 36.4243 -78.3220 202° Southwest  Level Estimated
11:06AM 36.3341 -78.3680 202° Southwest  Level Estimated
11:07AM 36.2439 -78.4139 202° Southwest  Level Estimated
11:08AM 36.1537 -78.4597 202° Southwest  Level Estimated
11:09AM 36.0635 -78.5054 202° Southwest  Level Estimated
11:10AM 35.9733 -78.5509 202° Southwest  Level Estimated
11:11AM 35.8830 -78.5964 202° Southwest  Level Estimated
11:12AM 35.7927 -78.6418 202° Southwest  Level Estimated
11:13AM 35.7024 -78.6870 202° Southwest  Level Estimated
11:14AM 35.6121 -78.7322 202° Southwest  Level Estimated
11:15AM 35.5218 -78.7773 202° Southwest  Level Estimated
11:16AM 35.4314 -78.8222 202° Southwest  Level Estimated
11:17AM 35.3411 -78.8671 202° Southwest  Level Estimated
11:18AM 35.2507 -78.9118 202° Southwest  Level Estimated
11:19AM 35.1603 -78.9565 202° Southwest  Level Estimated
11:20AM 35.0699 -79.0011 202° Southwest  Level Estimated
11:21AM 34.9795 -79.0455 202° Southwest  Level Estimated
11:22AM 34.8890 -79.0899 202° Southwest  Level Estimated
11:23AM 34.7986 -79.1341 202° Southwest  Level Estimated
11:24AM 34.7081 -79.1783 202° Southwest  Level Estimated
11:25AM 34.6176 -79.2224 202° Southwest  Level Estimated
11:26AM 34.5271 -79.2663 202° Southwest  Level Estimated
11:27AM 34.4366 -79.3102 202° Southwest  Level Estimated
11:28AM 34.3461 -79.3540 202° Southwest  Level Estimated
11:29AM 34.2555 -79.3977 202° Southwest  Level Estimated
11:30AM 34.1649 -79.4413 202° Southwest  Level Estimated
11:31AM 34.0743 -79.4848 202° Southwest  Level Estimated
11:32AM 33.9837 -79.5282 202° Southwest  Level Estimated
11:33AM 33.8931 -79.5715 202° Southwest  Level Estimated
11:34AM 33.8025 -79.6147 202° Southwest  Level Estimated
11:35AM 33.7119 -79.6579 202° Southwest  Level Estimated
11:36AM 33.6212 -79.7009 202° Southwest  Level Estimated
11:37AM 33.5305 -79.7439 202° Southwest  Level Estimated
11:38AM 33.4398 -79.7867 202° Southwest  Level Estimated
11:39AM 33.3492 -79.8295 202° Southwest  Level Estimated
11:40AM 33.2584 -79.8722 201° Southwest  Level Estimated
11:41AM 33.1677 -79.9148 201° Southwest  Level Estimated
11:42AM 33.0770 -79.9573 201° Southwest  Level Estimated
11:43AM 32.9862 -79.9997 201° Southwest  Level Estimated
11:44AM 32.8986 -80.0405 201° Southwest  Level Estimated
11:45AM 32.8986 -80.0405 121° Southeast  Level Estimated
11:46AM 32.8986 -80.0405 121° Southeast  Level Estimated
11:47AM 32.8986 -80.0405 121° Southeast  Level Estimated
11:48AM 32.8986 -80.0405 121° Southeast  Level Estimated
11:49AM 32.8986 -80.0405 121° Southeast  Level Estimated
11:50AM 32.8986 -80.0405 121° Southeast  Level Estimated
11:51AM 32.8986 -80.0405 121° Southeast  Level Estimated
11:52AM 32.8986 -80.0405 121° Southeast  Level Estimated
11:53AM 32.8986 -80.0405 121° Southeast  Level Estimated
11:54AM 32.8986 -80.0405 121° Southeast  Level Estimated
11:55AM 32.8986 -80.0405 121° Southeast  Level Estimated
11:56AM 32.8986 -80.0405 121° Southeast  Level Estimated
11:57AM 32.8986 -80.0405 121° Southeast  Level Estimated
11:58AM 32.8986 -80.0405 121° Southeast  Level Estimated